This is the latest recevied weather packets stored in our database for station/object EB2EMZ-W. If no packets are shown the sender has not sent any weather packets the latest 1 day(s).
| Time | Temp. | Humidity | Pressure | Rain* | Wind** | Luminosity | Snow |
|---|---|---|---|---|---|---|---|
| 1836274377 | 23.33° C | 50% | 1002 hPa | 0 mm | 0 m/s | - | - |
| 1778035110 | 11.11° C | 83% | 997 hPa | 0 mm | 0 m/s | - | - |
| 1778033289 | 11.11° C | 83% | 997 hPa | 0 mm | 0 m/s | - | - |
| 1778031469 | 11.67° C | 83% | 997 hPa | 0 mm | 0 m/s | - | - |
| 1778029648 | 11.67° C | 83% | 997 hPa | 0 mm | 0 m/s | - | - |
| 1778027828 | 11.67° C | 84% | 998 hPa | 0 mm | 0 m/s | - | - |
| 1778026008 | 11.67° C | 85% | 998 hPa | 0 mm | 0 m/s | - | - |
| 1778024189 | 11.67° C | 84% | 998 hPa | 0 mm | 0 m/s | - | - |
| 1778021144 | 11.11° C | 85% | 998 hPa | 0 mm | 0 m/s | - | - |
| 1778019332 | 11.11° C | 85% | 998 hPa | 0 mm | 0 m/s | - | - |
| 1778017519 | 11.11° C | 85% | 998 hPa | 0 mm | 0 m/s | - | - |
| 1778015705 | 11.11° C | 85% | 998 hPa | 0 mm | 0 m/s | - | - |
| 1778013892 | 11.67° C | 85% | 998 hPa | 0 mm | 0 m/s | - | - |
| 1778012079 | 12.22° C | 83% | 997 hPa | 0 mm | 0 m/s | - | - |
| 1778010266 | 12.78° C | 79% | 997 hPa | 0 mm | 0 m/s | - | - |
| 1778008452 | 13.33° C | 77% | 997 hPa | 0 mm | 0 m/s | - | - |
| 1778006639 | 13.33° C | 75% | 997 hPa | 0 mm | 0 m/s | - | - |
| 1778004826 | 13.89° C | 68% | 997 hPa | 1.02 mm | 0 m/s | - | - |
| 1778003013 | 13.89° C | 67% | 997 hPa | 1.02 mm | 0 m/s | - | - |
| 1778001200 | 13.33° C | 65% | 997 hPa | 0 mm | 0 m/s | - | - |
| 1777999386 | 14.44° C | 68% | 997 hPa | 3.05 mm | 0 m/s | - | - |
| 1777997572 | 15° C | 63% | 997 hPa | 3.05 mm | 0 m/s | - | - |
| 1777995759 | 16.11° C | 49% | 996.7 hPa | 0 mm | 0 m/s | - | - |
| 1777993946 | 18.33° C | 48% | 997 hPa | 0 mm | 0 m/s | - | - |
| 1777992131 | 15.56° C | 60% | 997 hPa | 1.02 mm | 0 m/s | - | - |
* Rain latest hour (hover to see other rain measurements)
** Current wind speed in m/s (hover to see current wind gust speed)